Time;durP1;ratioP1;P1;durP2;ratioP2;P2;SDS_P1;SDS_P2;PMS_P1;PMS_P2;Temp;Humidity;BMP_temperature;BMP_pressure;BME280_temperature;BME280_humidity;BME280_pressure;Samples;Min_cycle;Max_cycle;Signal;HPM_P1;HPM_P2
2021/04/05 00:01:33;;;;;;;13.87;5.27;;;;;;;;;;5089242;28;20043;-68
2021/04/05 00:03:59;;;;;;;15.40;5.77;;;;;;;;;;5090396;28;20074;-68
2021/04/05 00:06:24;;;;;;;11.73;5.20;;;;;;;;;;5091561;28;20124;-68
2021/04/05 00:08:49;;;;;;;11.37;4.23;;;;;;;;;;5089234;28;20031;-68
2021/04/05 00:11:16;;;;;;;12.03;5.07;;;;;;;;;;5090195;28;20023;-68
2021/04/05 00:13:42;;;;;;;11.73;4.50;;;;;;;;;;5086008;28;20024;-68
2021/04/05 00:16:07;;;;;;;11.30;4.63;;;;;;;;;;5087801;28;20270;-68
2021/04/05 00:18:33;;;;;;;10.87;4.10;;;;;;;;;;5090844;28;20464;-68
2021/04/05 00:21:00;;;;;;;16.40;5.20;;;;;;;;;;5092275;28;20479;-68
2021/04/05 00:23:25;;;;;;;10.97;4.17;;;;;;;;;;5089468;28;20504;-68
2021/04/05 00:25:50;;;;;;;14.10;6.00;;;;;;;;;;5089189;28;20308;-68
2021/04/05 00:28:16;;;;;;;15.83;4.77;;;;;;;;;;5087515;28;20036;-68
2021/04/05 00:30:42;;;;;;;11.70;3.77;;;;;;;;;;5080261;28;20024;-68
2021/04/05 00:33:07;;;;;;;14.37;4.93;;;;;;;;;;5085557;28;20023;-68
2021/04/05 00:35:34;;;;;;;8.93;4.20;;;;;;;;;;5089791;28;20062;-68
2021/04/05 00:38:00;;;;;;;10.80;3.93;;;;;;;;;;5092107;28;20009;-68
2021/04/05 00:40:28;;;;;;;12.43;4.23;;;;;;;;;;5087583;28;20286;-68
2021/04/05 00:42:53;;;;;;;9.23;4.23;;;;;;;;;;5087620;28;20330;-68
2021/04/05 00:45:20;;;;;;;8.23;4.03;;;;;;;;;;5080268;28;20361;-68
2021/04/05 00:47:46;;;;;;;9.40;4.27;;;;;;;;;;5079527;28;20472;-68
2021/04/05 00:50:17;;;;;;;12.37;5.50;;;;;;;;;;5074526;28;20631;-68
2021/04/05 00:52:42;;;;;;;12.63;4.60;;;;;;;;;;5075269;28;20255;-68
2021/04/05 00:55:08;;;;;;;11.87;5.30;;;;;;;;;;5081484;28;20818;-68
2021/04/05 00:57:34;;;;;;;8.07;3.63;;;;;;;;;;5070536;28;20016;-68
2021/04/05 00:59:59;;;;;;;13.00;4.40;;;;;;;;;;5088684;28;20016;-68
2021/04/05 01:02:24;;;;;;;15.30;4.40;;;;;;;;;;5090903;28;20073;-68
2021/04/05 01:04:50;;;;;;;12.07;4.70;;;;;;;;;;5088146;28;20040;-68
2021/04/05 01:07:15;;;;;;;9.93;3.63;;;;;;;;;;5090558;28;20362;-68
2021/04/05 01:09:40;;;;;;;10.67;3.87;;;;;;;;;;5088565;28;20047;-68
2021/04/05 01:12:06;;;;;;;14.47;5.07;;;;;;;;;;5090148;28;20035;-68
2021/04/05 01:14:31;;;;;;;13.50;3.83;;;;;;;;;;5088131;28;20024;-68
2021/04/05 01:16:57;;;;;;;9.07;4.03;;;;;;;;;;5088020;28;20024;-68
2021/04/05 01:19:22;;;;;;;13.33;3.90;;;;;;;;;;5092020;28;20026;-68
2021/04/05 01:21:48;;;;;;;9.77;3.80;;;;;;;;;;5091220;28;20020;-68
2021/04/05 01:24:13;;;;;;;13.47;5.13;;;;;;;;;;5088831;28;20044;-68
2021/04/05 01:26:39;;;;;;;14.27;4.40;;;;;;;;;;5089649;28;20282;-68
2021/04/05 01:29:04;;;;;;;14.03;4.43;;;;;;;;;;5088672;28;20023;-68
2021/04/05 01:31:29;;;;;;;12.20;3.83;;;;;;;;;;5085097;28;20545;-68
2021/04/05 01:33:54;;;;;;;12.10;4.30;;;;;;;;;;5089842;28;20015;-68
2021/04/05 01:36:20;;;;;;;7.93;3.63;;;;;;;;;;5069771;28;20027;-68
2021/04/05 01:38:50;;;;;;;10.50;4.90;;;;;;;;;;5090986;28;20091;-68
2021/04/05 01:41:15;;;;;;;15.67;4.73;;;;;;;;;;5089753;28;20024;-68
2021/04/05 01:43:40;;;;;;;12.80;3.77;;;;;;;;;;5088520;28;20270;-68
2021/04/05 01:46:07;;;;;;;11.07;4.60;;;;;;;;;;5093623;28;20537;-68
2021/04/05 01:48:32;;;;;;;12.63;4.63;;;;;;;;;;5092948;28;20073;-68
2021/04/05 01:50:58;;;;;;;9.30;3.33;;;;;;;;;;5092112;28;20290;-68
2021/04/05 01:53:24;;;;;;;11.37;4.67;;;;;;;;;;5094796;28;20091;-68
2021/04/05 01:55:49;;;;;;;17.20;4.17;;;;;;;;;;5091801;28;20373;-68
2021/04/05 01:58:18;;;;;;;12.07;4.50;;;;;;;;;;5093749;28;20020;-68
2021/04/05 02:00:44;;;;;;;11.77;4.13;;;;;;;;;;5093971;28;20419;-68
2021/04/05 02:03:10;;;;;;;7.83;3.90;;;;;;;;;;5092428;28;20276;-68
2021/04/05 02:05:37;;;;;;;9.00;4.03;;;;;;;;;;5091447;28;20051;-68
2021/04/05 02:08:04;;;;;;;10.70;4.27;;;;;;;;;;5092910;28;20028;-68
2021/04/05 02:10:29;;;;;;;9.20;3.97;;;;;;;;;;5092377;28;20355;-68
2021/04/05 02:12:55;;;;;;;8.87;3.93;;;;;;;;;;5091613;28;20385;-68
2021/04/05 02:15:23;;;;;;;16.43;4.90;;;;;;;;;;5093345;28;20024;-68
2021/04/05 02:17:48;;;;;;;14.23;4.90;;;;;;;;;;5092538;28;20277;-68
2021/04/05 02:20:15;;;;;;;11.37;4.17;;;;;;;;;;5092240;28;20660;-68
2021/04/05 02:22:51;;;;;;;18.67;5.17;;;;;;;;;;5094181;28;20051;-68
2021/04/05 02:25:17;;;;;;;16.70;4.63;;;;;;;;;;5092570;28;20605;-68
2021/04/05 02:27:43;;;;;;;9.63;3.77;;;;;;;;;;5092562;28;20801;-68
2021/04/05 02:30:21;;;;;;;13.67;5.17;;;;;;;;;;5082740;28;20287;-68
2021/04/05 02:32:47;;;;;;;13.87;5.50;;;;;;;;;;5091727;28;20042;-68
2021/04/05 02:35:12;;;;;;;13.87;3.90;;;;;;;;;;5073372;28;20278;-68
2021/04/05 02:37:38;;;;;;;13.67;4.03;;;;;;;;;;5092644;28;21170;-68
2021/04/05 02:40:04;;;;;;;10.53;3.97;;;;;;;;;;5088519;28;20027;-68
2021/04/05 02:42:29;;;;;;;11.20;4.60;;;;;;;;;;5092189;28;20097;-68
2021/04/05 02:44:55;;;;;;;9.00;4.07;;;;;;;;;;5092460;28;20365;-68
2021/04/05 02:47:20;;;;;;;13.10;4.97;;;;;;;;;;5091243;28;20032;-68
2021/04/05 02:49:45;;;;;;;10.07;4.23;;;;;;;;;;5090752;28;20032;-68
2021/04/05 02:52:11;;;;;;;14.33;5.57;;;;;;;;;;5091705;28;20062;-68
2021/04/05 02:54:37;;;;;;;15.83;4.90;;;;;;;;;;5090281;28;20020;-68
2021/04/05 02:57:02;;;;;;;14.40;5.13;;;;;;;;;;5092762;28;20024;-68
2021/04/05 02:59:28;;;;;;;23.23;3.93;;;;;;;;;;5092668;28;20541;-68
2021/04/05 03:01:53;;;;;;;15.10;5.03;;;;;;;;;;5092865;28;20027;-68
2021/04/05 03:04:19;;;;;;;20.93;5.43;;;;;;;;;;5090543;28;20032;-68
2021/04/05 03:06:48;;;;;;;14.50;5.17;;;;;;;;;;5085384;28;20508;-68
2021/04/05 03:09:13;;;;;;;12.60;5.43;;;;;;;;;;5084327;28;20111;-68
2021/04/05 03:11:42;;;;;;;10.37;3.73;;;;;;;;;;5093318;28;20107;-68
2021/04/05 03:14:08;;;;;;;28.93;6.93;;;;;;;;;;5091953;28;20653;-68
2021/04/05 03:16:36;;;;;;;16.50;4.83;;;;;;;;;;5090244;28;20024;-68
2021/04/05 03:19:02;;;;;;;21.70;6.80;;;;;;;;;;5090249;28;20069;-68
2021/04/05 03:21:28;;;;;;;14.23;5.43;;;;;;;;;;5091288;28;20103;-68
2021/04/05 03:23:53;;;;;;;11.67;5.13;;;;;;;;;;5092363;28;20102;-68
2021/04/05 03:26:18;;;;;;;14.17;5.03;;;;;;;;;;5091343;28;20035;-68
2021/04/05 03:28:44;;;;;;;12.53;6.47;;;;;;;;;;5091689;28;20056;-68
2021/04/05 03:31:15;;;;;;;13.40;5.00;;;;;;;;;;5091632;28;20110;-68
2021/04/05 03:33:47;;;;;;;24.93;6.83;;;;;;;;;;5092416;28;20384;-68
2021/04/05 03:36:12;;;;;;;;;;;;;;;;;;5086529;28;20039;-68
2021/04/05 03:38:38;;;;;;;16.30;5.63;;;;;;;;;;5091100;28;19916;-68
2021/04/05 03:41:08;;;;;;;12.83;4.87;;;;;;;;;;5091623;28;20036;-68
2021/04/05 03:43:52;;;;;;;16.50;6.83;;;;;;;;;;5091806;28;20073;-68
2021/04/05 03:46:21;;;;;;;12.83;5.77;;;;;;;;;;5090769;28;20040;-68
2021/04/05 03:48:53;;;;;;;14.60;5.67;;;;;;;;;;5091975;28;20024;-68
2021/04/05 03:51:44;;;;;;;13.27;4.77;;;;;;;;;;5089568;28;20289;-68
2021/04/05 03:54:11;;;;;;;13.97;5.80;;;;;;;;;;5077248;28;20036;-68
2021/04/05 03:56:38;;;;;;;18.10;6.67;;;;;;;;;;5091388;28;20285;-68
2021/04/05 03:59:06;;;;;;;24.10;7.27;;;;;;;;;;5090246;28;20298;-68
2021/04/05 04:01:32;;;;;;;16.63;6.50;;;;;;;;;;5089507;28;20353;-68
2021/04/05 04:04:10;;;;;;;12.17;4.83;;;;;;;;;;5091174;28;20357;-68
2021/04/05 04:07:00;;;;;;;24.40;6.90;;;;;;;;;;5085262;28;20052;-68
2021/04/05 04:09:24;;;;;;;24.17;7.03;;;;;;;;;;5084200;28;20328;-68
2021/04/05 04:11:51;;;;;;;20.93;7.77;;;;;;;;;;5087623;28;20665;-68
2021/04/05 04:14:17;;;;;;;18.27;7.40;;;;;;;;;;5089025;28;20383;-68
2021/04/05 04:16:43;;;;;;;20.17;6.37;;;;;;;;;;5084088;28;20282;-68
2021/04/05 04:19:10;;;;;;;19.80;8.03;;;;;;;;;;5077918;28;20020;-68
2021/04/05 04:21:36;;;;;;;17.67;7.17;;;;;;;;;;5090110;28;20274;-68
2021/04/05 04:24:01;;;;;;;25.97;7.30;;;;;;;;;;5090753;28;20277;-68
2021/04/05 04:26:30;;;;;;;17.53;6.27;;;;;;;;;;5090880;28;20027;-68
2021/04/05 04:28:56;;;;;;;18.43;7.23;;;;;;;;;;5084885;28;20023;-68
2021/04/05 04:31:21;;;;;;;24.80;7.50;;;;;;;;;;5088940;28;20290;-68
2021/04/05 04:33:47;;;;;;;22.67;8.20;;;;;;;;;;5090636;28;20093;-67
2021/04/05 04:36:13;;;;;;;16.00;6.23;;;;;;;;;;5090103;28;20039;-68
2021/04/05 04:38:38;;;;;;;19.57;7.10;;;;;;;;;;5091750;28;20258;-68
2021/04/05 04:41:03;;;;;;;25.83;7.67;;;;;;;;;;5087390;28;20109;-68
2021/04/05 04:43:29;;;;;;;17.17;6.97;;;;;;;;;;5089328;28;20374;-68
2021/04/05 04:45:54;;;;;;;20.90;6.93;;;;;;;;;;5089228;28;20024;-68
2021/04/05 04:48:19;;;;;;;20.43;6.70;;;;;;;;;;5090507;28;20454;-68
2021/04/05 04:50:45;;;;;;;20.37;7.27;;;;;;;;;;5084972;28;20024;-68
2021/04/05 04:53:10;;;;;;;17.30;6.97;;;;;;;;;;5091065;28;20107;-68
2021/04/05 04:55:36;;;;;;;25.60;8.70;;;;;;;;;;5089178;28;20031;-68
2021/04/05 04:58:02;;;;;;;20.53;7.80;;;;;;;;;;5090119;28;20020;-68
2021/04/05 05:00:28;;;;;;;18.07;6.07;;;;;;;;;;5087005;28;20016;-68
2021/04/05 05:02:55;;;;;;;20.83;7.53;;;;;;;;;;5091036;28;20288;-68
2021/04/05 05:05:21;;;;;;;18.13;5.63;;;;;;;;;;5088590;28;20297;-68
2021/04/05 05:07:47;;;;;;;18.47;6.23;;;;;;;;;;5090162;28;20665;-68
2021/04/05 05:10:13;;;;;;;21.50;6.40;;;;;;;;;;5088597;28;20316;-68
2021/04/05 05:12:38;;;;;;;18.13;7.00;;;;;;;;;;5089113;28;20021;-68
2021/04/05 05:15:07;;;;;;;12.73;5.37;;;;;;;;;;5089019;28;20027;-68
2021/04/05 05:17:33;;;;;;;17.60;6.70;;;;;;;;;;5089442;28;20048;-69
2021/04/05 05:19:59;;;;;;;17.20;5.43;;;;;;;;;;5095239;28;20285;-69
2021/04/05 05:22:25;;;;;;;15.73;4.50;;;;;;;;;;5093101;28;20156;-69
2021/04/05 05:24:52;;;;;;;8.67;3.00;;;;;;;;;;5092779;28;20277;-69
2021/04/05 05:27:19;;;;;;;9.70;4.27;;;;;;;;;;5092426;28;20717;-69
2021/04/05 05:29:45;;;;;;;3.87;1.10;;;;;;;;;;5093213;28;20266;-70
2021/04/05 05:32:10;;;;;;;7.60;1.83;;;;;;;;;;5093002;28;20266;-69
2021/04/05 05:34:35;;;;;;;1.40;0.70;;;;;;;;;;5088772;28;20043;-70
2021/04/05 05:37:01;;;;;;;1.37;0.40;;;;;;;;;;5089572;28;20030;-69
2021/04/05 05:39:27;;;;;;;0.73;0.50;;;;;;;;;;5092807;28;20012;-69
2021/04/05 05:42:10;;;;;;;0.97;0.50;;;;;;;;;;5092372;28;20519;-69
2021/04/05 05:44:38;;;;;;;0.80;0.57;;;;;;;;;;5092178;28;20016;-69
2021/04/05 05:47:09;;;;;;;2.80;0.87;;;;;;;;;;5094119;28;20270;-69
2021/04/05 05:49:41;;;;;;;3.13;0.70;;;;;;;;;;5092776;28;20599;-69
2021/04/05 05:52:12;;;;;;;1.23;0.60;;;;;;;;;;5093647;28;20270;-69
2021/04/05 05:54:55;;;;;;;2.47;0.57;;;;;;;;;;5092391;28;20282;-69
2021/04/05 05:57:26;;;;;;;1.87;0.50;;;;;;;;;;5092631;28;20298;-69
2021/04/05 06:00:15;;;;;;;1.40;0.70;;;;;;;;;;5093388;28;20323;-69
2021/04/05 06:02:59;;;;;;;0.90;0.50;;;;;;;;;;5076741;28;20316;-69
2021/04/05 06:05:32;;;;;;;2.07;0.70;;;;;;;;;;5092792;28;20373;-69
2021/04/05 06:08:16;;;;;;;1.30;0.60;;;;;;;;;;5093006;28;20315;-69
2021/04/05 06:10:50;;;;;;;1.00;0.50;;;;;;;;;;5091318;28;20335;-69
2021/04/05 06:13:36;;;;;;;2.57;0.60;;;;;;;;;;5093502;28;20277;-69
2021/04/05 06:16:14;;;;;;;1.07;0.57;;;;;;;;;;5082831;28;20356;-69
2021/04/05 06:18:53;;;;;;;5.03;0.80;;;;;;;;;;5091590;28;20266;-69
2021/04/05 06:21:44;;;;;;;1.33;0.50;;;;;;;;;;5085625;28;20266;-69
2021/04/05 06:24:15;;;;;;;2.10;0.50;;;;;;;;;;5085371;28;20282;-69
2021/04/05 06:26:43;;;;;;;1.93;0.77;;;;;;;;;;5087264;28;20359;-69
2021/04/05 06:29:27;;;;;;;1.43;0.60;;;;;;;;;;5091721;28;21034;-69
2021/04/05 06:32:12;;;;;;;1.13;0.50;;;;;;;;;;5091172;28;20323;-69
2021/04/05 06:34:47;;;;;;;2.23;0.50;;;;;;;;;;5083740;28;20267;-69
2021/04/05 06:37:25;;;;;;;1.93;0.60;;;;;;;;;;5092725;28;20315;-70
2021/04/05 06:39:52;;;;;;;1.40;0.50;;;;;;;;;;5091421;28;20410;-70
2021/04/05 06:42:42;;;;;;;0.93;0.60;;;;;;;;;;5090666;28;20274;-69
2021/04/05 06:45:27;;;;;;;0.77;0.40;;;;;;;;;;5087618;28;20275;-69
2021/04/05 06:47:58;;;;;;;1.53;0.60;;;;;;;;;;5087559;28;20368;-69
2021/04/05 06:50:29;;;;;;;0.50;0.40;;;;;;;;;;5087140;28;20787;-69
2021/04/05 06:53:07;;;;;;;3.73;0.57;;;;;;;;;;5092877;28;20281;-69
2021/04/05 06:55:44;;;;;;;1.20;0.60;;;;;;;;;;5085438;28;20356;-72
2021/04/05 06:58:24;;;;;;;1.13;0.60;;;;;;;;;;5092036;28;20266;-69
2021/04/05 07:00:55;;;;;;;2.70;0.53;;;;;;;;;;5088932;28;20293;-70
2021/04/05 07:03:39;;;;;;;2.00;0.50;;;;;;;;;;5087739;28;20278;-70
2021/04/05 07:06:14;;;;;;;2.57;0.80;;;;;;;;;;5088398;28;20800;-70
2021/04/05 07:08:58;;;;;;;1.97;0.63;;;;;;;;;;5092333;28;20277;-70
2021/04/05 07:11:45;;;;;;;3.47;0.87;;;;;;;;;;5090814;28;20289;-69
2021/04/05 07:14:10;;;;;;;3.83;0.70;;;;;;;;;;5092400;28;20366;-70
2021/04/05 07:16:39;;;;;;;3.33;0.60;;;;;;;;;;5092826;28;20286;-69
2021/04/05 07:19:23;;;;;;;1.10;0.50;;;;;;;;;;5088445;28;20469;-70
2021/04/05 07:21:54;;;;;;;5.00;0.83;;;;;;;;;;5091561;28;20326;-69
2021/04/05 07:24:30;;;;;;;2.53;0.50;;;;;;;;;;5089704;28;20278;-69
2021/04/05 07:27:06;;;;;;;8.00;1.60;;;;;;;;;;5091181;28;20327;-69
2021/04/05 07:29:50;;;;;;;2.17;0.70;;;;;;;;;;5091562;28;20281;-69
2021/04/05 07:32:34;;;;;;;1.20;0.60;;;;;;;;;;5087124;28;20792;-69
2021/04/05 07:35:29;;;;;;;3.67;0.70;;;;;;;;;;5091528;28;20277;-69
2021/04/05 07:38:02;;;;;;;3.17;0.70;;;;;;;;;;5084653;28;20285;-69
2021/04/05 07:40:47;;;;;;;4.17;1.03;;;;;;;;;;5089840;28;20309;-70
2021/04/05 07:43:31;;;;;;;2.10;0.93;;;;;;;;;;5091035;28;20278;-69
2021/04/05 07:46:10;;;;;;;2.10;0.57;;;;;;;;;;5090602;28;20276;-69
2021/04/05 07:48:39;;;;;;;5.17;1.07;;;;;;;;;;5085507;28;20276;-69
2021/04/05 07:51:22;;;;;;;1.70;0.67;;;;;;;;;;5090728;28;20294;-69
2021/04/05 07:53:55;;;;;;;3.80;1.50;;;;;;;;;;5092531;28;20246;-69
2021/04/05 07:56:27;;;;;;;3.87;0.70;;;;;;;;;;5089196;28;20274;-69
2021/04/05 07:58:58;;;;;;;3.20;1.00;;;;;;;;;;5090470;28;20823;-70
2021/04/05 08:01:28;;;;;;;9.40;0.90;;;;;;;;;;5087045;28;20069;-69
2021/04/05 08:04:21;;;;;;;3.30;0.60;;;;;;;;;;5090357;28;20361;-69
2021/04/05 08:07:02;;;;;;;2.85;0.93;;;;;;;;;;5068013;28;20673;-69
2021/04/05 08:09:37;;;;;;;2.50;0.60;;;;;;;;;;5090729;28;20369;-70
2021/04/05 08:12:14;;;;;;;6.57;0.70;;;;;;;;;;5085046;28;20327;-69
2021/04/05 08:14:40;;;;;;;8.13;0.70;;;;;;;;;;5091383;28;20634;-69
2021/04/05 08:17:11;;;;;;;5.37;1.40;;;;;;;;;;5089712;28;20281;-69
2021/04/05 08:19:45;;;;;;;5.47;0.80;;;;;;;;;;5087938;28;20016;-69
2021/04/05 08:22:17;;;;;;;3.87;1.07;;;;;;;;;;5086639;28;20274;-69
2021/04/05 08:24:58;;;;;;;6.83;1.27;;;;;;;;;;5082043;28;20310;-69
2021/04/05 08:27:47;;;;;;;5.50;1.13;;;;;;;;;;5085807;28;20239;-69
2021/04/05 08:30:21;;;;;;;3.40;0.53;;;;;;;;;;5031783;28;20294;-69
2021/04/05 08:33:05;;;;;;;7.77;0.97;;;;;;;;;;5088696;28;21093;-69
2021/04/05 08:35:30;;;;;;;2.07;0.73;;;;;;;;;;5072437;28;20797;-69
2021/04/05 08:37:55;;;;;;;3.00;0.70;;;;;;;;;;5090585;28;20282;-70
2021/04/05 08:40:33;;;;;;;6.47;1.27;;;;;;;;;;5089160;28;20024;-69
2021/04/05 08:43:17;;;;;;;4.90;0.97;;;;;;;;;;5091144;28;20016;-69
2021/04/05 08:45:45;;;;;;;8.80;1.20;;;;;;;;;;5085610;28;20340;-71
2021/04/05 08:48:16;;;;;;;3.33;0.80;;;;;;;;;;5088859;28;20273;-73
2021/04/05 08:50:44;;;;;;;3.03;0.57;;;;;;;;;;5088531;28;20024;-74
2021/04/05 08:53:11;;;;;;;3.43;0.70;;;;;;;;;;5091822;28;20035;-75
2021/04/05 08:55:38;;;;;;;3.80;0.77;;;;;;;;;;5093537;28;20394;-72
2021/04/05 08:58:29;;;;;;;3.73;0.50;;;;;;;;;;5096087;28;20062;-70
2021/04/05 09:00:57;;;;;;;1.03;0.80;;;;;;;;;;5068891;28;20472;-70
2021/04/05 09:03:23;;;;;;;0.70;0.43;;;;;;;;;;5093810;28;20024;-70
2021/04/05 09:05:49;;;;;;;1.03;0.40;;;;;;;;;;5085298;28;20028;-69
2021/04/05 09:08:18;;;;;;;3.93;1.53;;;;;;;;;;5091909;28;20280;-70
2021/04/05 09:10:56;;;;;;;3.97;0.50;;;;;;;;;;5091309;28;20675;-70
2021/04/05 09:13:27;;;;;;;3.67;0.70;;;;;;;;;;5098193;28;20262;-69
2021/04/05 09:15:52;;;;;;;3.47;0.90;;;;;;;;;;5092855;28;20265;-70
2021/04/05 09:18:36;;;;;;;3.70;0.90;;;;;;;;;;5088097;28;20338;-70
2021/04/05 09:21:23;;;;;;;4.17;0.90;;;;;;;;;;5085926;28;20042;-70
2021/04/05 09:23:51;;;;;;;5.80;0.80;;;;;;;;;;5095567;28;20270;-70
2021/04/05 09:26:22;;;;;;;1.27;0.60;;;;;;;;;;5091426;28;20264;-69
2021/04/05 09:29:06;;;;;;;2.07;0.80;;;;;;;;;;5094719;28;20679;-70
2021/04/05 09:31:42;;;;;;;5.60;0.70;;;;;;;;;;5089694;28;20290;-70
2021/04/05 09:34:25;;;;;;;1.20;0.53;;;;;;;;;;5092715;28;20312;-70
2021/04/05 09:37:01;;;;;;;5.00;1.43;;;;;;;;;;5083651;28;20243;-70
2021/04/05 09:39:36;;;;;;;3.17;0.90;;;;;;;;;;5094511;28;20258;-70
2021/04/05 09:42:04;;;;;;;3.77;1.47;;;;;;;;;;5088644;28;20823;-70
2021/04/05 09:44:39;;;;;;;4.67;1.17;;;;;;;;;;5088488;28;20296;-70
2021/04/05 09:47:23;;;;;;;4.37;0.70;;;;;;;;;;5087841;28;20274;-70
2021/04/05 09:50:07;;;;;;;7.13;0.73;;;;;;;;;;5088449;28;20282;-70
2021/04/05 09:52:50;;;;;;;4.00;0.70;;;;;;;;;;5087193;28;20313;-70
2021/04/05 09:55:18;;;;;;;3.90;0.90;;;;;;;;;;5087894;28;20284;-70
2021/04/05 09:57:51;;;;;;;2.90;0.60;;;;;;;;;;5094605;28;20311;-70
2021/04/05 10:00:17;;;;;;;4.00;0.80;;;;;;;;;;5075293;28;20332;-70
2021/04/05 10:02:47;;;;;;;3.63;0.87;;;;;;;;;;5082192;28;20062;-70
2021/04/05 10:05:13;;;;;;;3.30;0.73;;;;;;;;;;5081397;28;20302;-70
2021/04/05 10:07:39;;;;;;;4.57;0.60;;;;;;;;;;5082427;28;20270;-70
2021/04/05 10:10:05;;;;;;;1.97;0.70;;;;;;;;;;5081212;28;20044;-70
2021/04/05 10:12:31;;;;;;;3.80;0.60;;;;;;;;;;5083025;28;20301;-70
2021/04/05 10:14:57;;;;;;;1.87;0.80;;;;;;;;;;5081634;28;20024;-69
2021/04/05 10:17:24;;;;;;;4.10;1.00;;;;;;;;;;5087210;28;20258;-69
2021/04/05 10:19:54;;;;;;;1.53;0.63;;;;;;;;;;5088085;28;20020;-70
2021/04/05 10:22:20;;;;;;;5.30;0.80;;;;;;;;;;5089539;28;21548;-69
2021/04/05 10:24:49;;;;;;;6.23;1.00;;;;;;;;;;5068402;28;20845;-69
2021/04/05 10:27:15;;;;;;;6.60;1.67;;;;;;;;;;5090400;28;21526;-69
2021/04/05 10:29:42;;;;;;;3.33;0.90;;;;;;;;;;5089365;28;20859;-70
2021/04/05 10:32:08;;;;;;;9.20;1.57;;;;;;;;;;5087033;28;20020;-70
2021/04/05 10:34:34;;;;;;;2.40;0.50;;;;;;;;;;5088514;28;20305;-70
2021/04/05 10:37:10;;;;;;;1.47;0.60;;;;;;;;;;5090104;28;20266;-70
2021/04/05 10:39:36;;;;;;;4.03;1.40;;;;;;;;;;5080264;28;20028;-70
2021/04/05 10:42:23;;;;;;;3.47;0.80;;;;;;;;;;5086996;28;20281;-69
2021/04/05 10:44:49;;;;;;;4.73;0.77;;;;;;;;;;5088069;28;20085;-68
2021/04/05 10:47:19;;;;;;;2.43;0.70;;;;;;;;;;5089647;28;20747;-69
2021/04/05 10:49:46;;;;;;;0.40;0.40;;;;;;;;;;5077891;28;20281;-69
2021/04/05 10:52:14;;;;;;;2.97;1.00;;;;;;;;;;5084686;28;20278;-68
2021/04/05 10:54:40;;;;;;;3.97;0.90;;;;;;;;;;5084350;28;20267;-69
2021/04/05 10:57:08;;;;;;;2.83;0.70;;;;;;;;;;5086815;28;20646;-68
2021/04/05 10:59:43;;;;;;;3.80;0.80;;;;;;;;;;5085542;28;20277;-68
2021/04/05 11:02:26;;;;;;;5.70;1.00;;;;;;;;;;5078629;28;20262;-69
2021/04/05 11:05:02;;;;;;;3.80;0.90;;;;;;;;;;5079659;28;20639;-69
2021/04/05 11:07:30;;;;;;;5.07;1.90;;;;;;;;;;5069787;28;20302;-69
2021/04/05 11:09:56;;;;;;;3.13;0.87;;;;;;;;;;5065435;28;20281;-69
2021/04/05 11:12:22;;;;;;;9.90;1.47;;;;;;;;;;5089295;28;20262;-69
2021/04/05 11:14:49;;;;;;;5.57;1.30;;;;;;;;;;5084550;28;20266;-68
2021/04/05 11:17:15;;;;;;;4.77;0.77;;;;;;;;;;5088765;28;20254;-68
2021/04/05 11:19:49;;;;;;;6.27;1.13;;;;;;;;;;5088463;28;20634;-69
2021/04/05 11:22:19;;;;;;;2.87;0.90;;;;;;;;;;5088222;28;20062;-69
2021/04/05 11:24:52;;;;;;;2.43;0.80;;;;;;;;;;5082526;28;20278;-68
2021/04/05 11:27:17;;;;;;;;;;;;;;;;;;5075644;28;20789;-68
2021/04/05 11:29:43;;;;;;;3.30;0.90;;;;;;;;;;5085201;28;19990;-69
2021/04/05 11:32:09;;;;;;;4.67;1.63;;;;;;;;;;5077047;28;20024;-69
2021/04/05 11:34:37;;;;;;;0.90;0.50;;;;;;;;;;5083857;28;20611;-68
2021/04/05 11:37:03;;;;;;;5.77;0.80;;;;;;;;;;5080873;28;20062;-68
2021/04/05 11:39:31;;;;;;;4.50;0.90;;;;;;;;;;5087081;28;20309;-68
2021/04/05 11:41:57;;;;;;;3.50;0.80;;;;;;;;;;5084382;28;20058;-68
2021/04/05 11:44:42;;;;;;;1.93;0.70;;;;;;;;;;5081417;28;20758;-68
2021/04/05 11:47:09;;;;;;;0.87;0.33;;;;;;;;;;5058764;28;20933;-68
2021/04/05 11:49:34;;;;;;;3.90;0.80;;;;;;;;;;5084287;28;20285;-68
2021/04/05 11:52:19;;;;;;;4.20;0.87;;;;;;;;;;5083808;28;20824;-68
2021/04/05 11:55:01;;;;;;;2.10;0.70;;;;;;;;;;5087455;28;20100;-68
2021/04/05 11:57:31;;;;;;;1.45;0.50;;;;;;;;;;5086182;28;20297;-68
2021/04/05 12:00:23;;;;;;;2.13;0.60;;;;;;;;;;5085729;28;20085;-67
2021/04/05 12:02:51;;;;;;;2.30;0.60;;;;;;;;;;5074048;28;20320;-68
2021/04/05 12:05:21;;;;;;;2.30;0.50;;;;;;;;;;5084566;28;20278;-68
2021/04/05 12:07:48;;;;;;;2.63;1.07;;;;;;;;;;5088088;28;20398;-68
2021/04/05 12:10:18;;;;;;;3.80;0.70;;;;;;;;;;5084254;28;20373;-68
2021/04/05 12:12:51;;;;;;;2.20;0.50;;;;;;;;;;5089443;28;20749;-68
2021/04/05 12:15:17;;;;;;;2.20;0.70;;;;;;;;;;5086792;28;20270;-68
2021/04/05 12:17:46;;;;;;;0.57;0.40;;;;;;;;;;5088152;28;20274;-68
2021/04/05 12:20:14;;;;;;;1.27;0.60;;;;;;;;;;5086168;28;20031;-68
2021/04/05 12:22:39;;;;;;;3.23;0.70;;;;;;;;;;5087509;28;20027;-68
2021/04/05 12:25:05;;;;;;;2.83;0.63;;;;;;;;;;5081097;28;20023;-68
2021/04/05 12:27:37;;;;;;;1.77;0.70;;;;;;;;;;5075107;28;20027;-68
2021/04/05 12:30:05;;;;;;;2.73;0.50;;;;;;;;;;5087382;28;20024;-68
2021/04/05 12:32:30;;;;;;;1.23;0.50;;;;;;;;;;5086928;28;20035;-68
2021/04/05 12:34:57;;;;;;;4.07;0.57;;;;;;;;;;5079774;28;20492;-68
2021/04/05 12:37:24;;;;;;;1.17;0.50;;;;;;;;;;5082912;28;20475;-68
2021/04/05 12:39:50;;;;;;;5.93;0.57;;;;;;;;;;5080939;28;20274;-68
2021/04/05 12:42:16;;;;;;;6.73;0.70;;;;;;;;;;5083276;28;20277;-68
2021/04/05 12:44:43;;;;;;;0.50;0.50;;;;;;;;;;5081510;28;20762;-68
2021/04/05 12:47:10;;;;;;;2.77;0.50;;;;;;;;;;5081735;28;20020;-68
2021/04/05 12:49:41;;;;;;;1.17;0.43;;;;;;;;;;5083407;28;20750;-68
2021/04/05 12:52:09;;;;;;;1.60;0.43;;;;;;;;;;5086886;28;20382;-68
2021/04/05 12:54:36;;;;;;;1.57;0.80;;;;;;;;;;5083196;28;20012;-68
2021/04/05 12:57:03;;;;;;;1.50;0.80;;;;;;;;;;5084044;28;20278;-68
2021/04/05 12:59:29;;;;;;;1.07;0.40;;;;;;;;;;5082238;28;20282;-67
2021/04/05 13:02:09;;;;;;;1.23;0.50;;;;;;;;;;5082690;28;20282;-67
2021/04/05 13:04:35;;;;;;;2.00;0.63;;;;;;;;;;5077682;28;20304;-68
2021/04/05 13:07:08;;;;;;;1.57;0.57;;;;;;;;;;5086371;28;20286;-69
2021/04/05 13:09:41;;;;;;;2.03;0.73;;;;;;;;;;5087580;28;20111;-69
2021/04/05 13:12:06;;;;;;;;;;;;;;;;;;5084818;28;20326;-69
2021/04/05 13:14:51;;;;;;;3.92;0.52;;;;;;;;;;5086452;28;19963;-69
2021/04/05 13:17:28;;;;;;;3.50;0.60;;;;;;;;;;5085923;28;20063;-68
2021/04/05 13:20:02;;;;;;;2.67;1.00;;;;;;;;;;5083868;28;20020;-69
2021/04/05 13:22:29;;;;;;;3.23;0.40;;;;;;;;;;5082526;28;20028;-68
2021/04/05 13:25:07;;;;;;;1.07;0.47;;;;;;;;;;5085718;28;20028;-69
2021/04/05 13:27:33;;;;;;;5.23;0.87;;;;;;;;;;5065095;28;20016;-68
2021/04/05 13:30:00;;;;;;;3.50;0.57;;;;;;;;;;5079389;28;20024;-68
2021/04/05 13:32:30;;;;;;;1.87;0.50;;;;;;;;;;5082298;28;20027;-68
2021/04/05 13:35:00;;;;;;;2.53;0.60;;;;;;;;;;5074793;28;20027;-69
2021/04/05 13:37:25;;;;;;;3.50;0.50;;;;;;;;;;5087258;28;20104;-68
2021/04/05 13:39:51;;;;;;;1.53;0.60;;;;;;;;;;5090719;28;20543;-68
2021/04/05 13:42:19;;;;;;;5.77;0.80;;;;;;;;;;5090770;28;20020;-68
2021/04/05 13:44:46;;;;;;;4.13;0.80;;;;;;;;;;5085028;28;20074;-68
2021/04/05 13:47:12;;;;;;;3.57;0.70;;;;;;;;;;5083786;28;20556;-69
2021/04/05 13:49:38;;;;;;;1.50;0.60;;;;;;;;;;5085991;28;20020;-68
2021/04/05 13:52:04;;;;;;;1.37;0.50;;;;;;;;;;5085025;28;20056;-68
2021/04/05 13:54:31;;;;;;;2.80;0.70;;;;;;;;;;5086209;28;20317;-68
2021/04/05 13:56:58;;;;;;;1.50;0.70;;;;;;;;;;5084390;28;20013;-68
2021/04/05 13:59:25;;;;;;;1.77;0.50;;;;;;;;;;5087408;28;20373;-67
2021/04/05 14:01:50;;;;;;;2.53;0.80;;;;;;;;;;5090751;28;20349;-68
2021/04/05 14:04:17;;;;;;;3.97;0.77;;;;;;;;;;5080444;28;20115;-68
2021/04/05 14:06:48;;;;;;;5.10;0.50;;;;;;;;;;5089728;28;20059;-68
2021/04/05 14:09:14;;;;;;;2.93;0.70;;;;;;;;;;5088909;28;20020;-68
2021/04/05 14:11:47;;;;;;;2.57;1.03;;;;;;;;;;5090633;28;20294;-68
2021/04/05 14:14:12;;;;;;;3.38;0.63;;;;;;;;;;5088667;28;20402;-68
2021/04/05 14:16:48;;;;;;;6.73;1.50;;;;;;;;;;5088295;28;20032;-68
2021/04/05 14:19:26;;;;;;;1.13;0.50;;;;;;;;;;5088168;28;20030;-67
2021/04/05 14:22:09;;;;;;;2.37;0.70;;;;;;;;;;5086993;28;20024;-67
2021/04/05 14:24:38;;;;;;;13.17;1.20;;;;;;;;;;5084608;28;20044;-67
2021/04/05 14:27:05;;;;;;;3.83;0.77;;;;;;;;;;5057948;28;20027;-68
2021/04/05 14:29:34;;;;;;;2.00;0.60;;;;;;;;;;5067132;28;20028;-67
2021/04/05 14:32:02;;;;;;;2.23;0.63;;;;;;;;;;5089197;28;20161;-68
2021/04/05 14:34:29;;;;;;;4.13;0.60;;;;;;;;;;5086924;28;20044;-67
2021/04/05 14:36:56;;;;;;;1.33;0.50;;;;;;;;;;5090909;28;20016;-67
2021/04/05 14:39:25;;;;;;;3.07;1.03;;;;;;;;;;5088994;28;20066;-68
2021/04/05 14:41:54;;;;;;;3.97;0.60;;;;;;;;;;5090547;28;20032;-68
2021/04/05 14:44:20;;;;;;;2.33;0.70;;;;;;;;;;5087808;28;20028;-68
2021/04/05 14:46:47;;;;;;;1.53;0.60;;;;;;;;;;5086592;28;20358;-68
2021/04/05 14:49:23;;;;;;;1.70;0.50;;;;;;;;;;5086996;28;20464;-67
2021/04/05 14:51:50;;;;;;;2.37;0.50;;;;;;;;;;5087572;28;20032;-67
2021/04/05 14:54:16;;;;;;;2.87;0.43;;;;;;;;;;5087883;28;20102;-67
2021/04/05 14:56:45;;;;;;;4.37;0.70;;;;;;;;;;5088214;28;20051;-67
2021/04/05 14:59:11;;;;;;;1.73;0.80;;;;;;;;;;5088770;28;20020;-67